KEWR/EWR METAR and TAF weather

Enter ICAO airport designator
Station Type Date Time Source
KEWR METAR 2019/02/16 16:51 UTC NOAA

KEWR 161651Z 30010G19KT 10SM FEW055 FEW250 06/M09 A2987 RMK AO2 SLP116 T00561089


Station Type Date Time Source
KEWR Decoded METAR 2019/02/16 16:51 UTC NOAA

NEWARK INTERNATIONAL AIRPORT, NJ, United States (KEWR) 40-41N 74-10W 7M
Feb 16, 2019 - 11:51 AM EST / 2019.02.16 1651 UTC
Wind: from the WNW (300 degrees) at 12 MPH (10 KT) gusting to 22 MPH (19 KT):0
Visibility: 10 mile(s):0
Sky conditions: mostly clear
Temperature: 42.1 F (5.6 C)
Dew Point: 16.0 F (-8.9 C)
Relative Humidity: 34%
Pressure (altimeter): 29.87 in. Hg (1011 hPa)
ob: KEWR 161651Z 30010G19KT 10SM FEW055 FEW250 06/M09 A2987 RMK AO2 SLP116 T00561089
cycle: 17

Station Type Date Time Source
KEWR TAF 2019/02/16 18:22 UTC NOAA

TAF KEWR 161720Z 1618/1724 32010G19KT P6SM SKC
FM162100 32010KT P6SM SKC
FM170500 35006KT P6SM SKC
FM171400 02005KT P6SM FEW250
FM171700 08004KT P6SM SCT250
FM172000 13007KT P6SM SCT150 BKN250
FM172300 14011KT P6SM SCT080 BKN120


Example: see airport list